logo
Search for airport 
image banner adimage banner adimage banner ad
image banner ad

YRTI - Rottnest Island

Located in Fremantle, Australia

ICAO - YRTI, IATA - RTS

Data provided by Airmate  

General information

Coordinates: S32°0'24" E115°32'23"
Elevation is 12 feet MSL.
 
View others Airports in Western Australia

Operational data

Special qualification required
Current time UTC:
Current local time:
Weather at : YPJT - Perth / Jandakot ( 34 km )
METAR: YPJT 141600Z AUTO 00000KT 9999 // NCD 07/06 Q1020 RF00.0/006.4
TAF: TAF AMD YPJT 141402Z 1414/1506 16006KT CAVOK FM150400 21006KT CAVOK PROB30 1419/1423 2000 BR
View NOTAMs / SUP AIP / TFR affecting this airport [VIEW]
Communications frequencies: [VIEW]

Runways:

RWY identifierQFULength (ft)Width (ft)SurfaceLDA (ft)
0990°424259ASP
27270°424259ASP

Airport contact information

Address: Fremantle Australia

Satellite view of YRTI